sensor_id;sensor_type;location;lat;lon;timestamp;pressure;altitude;pressure_sealevel;temperature;humidity
16431;BME280;8325;49.284;7.238;2023-04-01T04:03:03;97217.97;;;8.41;100.00
16431;BME280;8325;49.284;7.238;2023-04-01T04:07:18;97215.75;;;8.38;100.00
16431;BME280;8325;49.284;7.238;2023-04-01T04:11:49;97214.84;;;8.24;100.00
16431;BME280;8325;49.284;7.238;2023-04-01T04:16:02;97211.84;;;8.27;100.00
16431;BME280;8325;49.284;7.238;2023-04-01T04:20:15;97216.00;;;8.22;100.00
16431;BME280;8325;49.284;7.238;2023-04-01T04:24:26;97199.03;;;8.19;100.00
16431;BME280;8325;49.284;7.238;2023-04-01T04:28:45;97209.06;;;8.29;100.00
16431;BME280;8325;49.284;7.238;2023-04-01T04:32:58;97208.84;;;8.24;100.00
16431;BME280;8325;49.284;7.238;2023-04-01T04:37:10;97200.38;;;8.15;100.00
16431;BME280;8325;49.284;7.238;2023-04-01T04:41:22;97187.38;;;8.15;100.00
16431;BME280;8325;49.284;7.238;2023-04-01T04:45:35;97188.34;;;8.07;100.00
16431;BME280;8325;49.284;7.238;2023-04-01T04:49:46;97200.31;;;8.02;100.00
16431;BME280;8325;49.284;7.238;2023-04-01T04:53:58;97185.91;;;8.06;100.00
16431;BME280;8325;49.284;7.238;2023-04-01T04:58:24;97207.91;;;8.03;100.00
16431;BME280;8325;49.284;7.238;2023-04-01T05:02:36;97201.09;;;8.02;100.00
16431;BME280;8325;49.284;7.238;2023-04-01T05:06:48;97205.13;;;8.05;100.00
16431;BME280;8325;49.284;7.238;2023-04-01T05:11:02;97208.34;;;8.07;100.00
16431;BME280;8325;49.284;7.238;2023-04-01T05:15:16;97202.66;;;7.97;100.00
16431;BME280;8325;49.284;7.238;2023-04-01T05:19:28;97198.09;;;7.99;100.00
16431;BME280;8325;49.284;7.238;2023-04-01T05:23:41;97202.47;;;7.98;100.00
16431;BME280;8325;49.284;7.238;2023-04-01T05:27:52;97193.91;;;8.04;100.00
16431;BME280;8325;49.284;7.238;2023-04-01T05:32:04;97182.91;;;8.02;100.00
16431;BME280;8325;49.284;7.238;2023-04-01T05:36:16;97182.28;;;8.00;100.00
16431;BME280;8325;49.284;7.238;2023-04-01T05:40:29;97178.03;;;7.93;100.00
16431;BME280;8325;49.284;7.238;2023-04-01T05:44:41;97188.44;;;7.93;100.00
16431;BME280;8325;49.284;7.238;2023-04-01T05:48:53;97187.22;;;7.89;100.00
16431;BME280;8325;49.284;7.238;2023-04-01T05:53:07;97192.59;;;7.87;100.00
16431;BME280;8325;49.284;7.238;2023-04-01T05:57:20;97186.63;;;7.93;100.00
16431;BME280;8325;49.284;7.238;2023-04-01T06:01:32;97199.25;;;7.96;100.00
16431;BME280;8325;49.284;7.238;2023-04-01T06:05:44;97202.41;;;7.85;100.00
16431;BME280;8325;49.284;7.238;2023-04-01T06:09:55;97205.47;;;7.95;100.00
16431;BME280;8325;49.284;7.238;2023-04-01T06:18:56;97197.88;;;8.00;100.00
16431;BME280;8325;49.284;7.238;2023-04-01T06:27:55;97199.84;;;7.92;100.00
16431;BME280;8325;49.284;7.238;2023-04-01T06:32:30;97195.44;;;7.92;100.00
16431;BME280;8325;49.284;7.238;2023-04-01T06:55:36;97192.53;;;8.08;100.00
16431;BME280;8325;49.284;7.238;2023-04-01T07:00:32;97191.16;;;8.13;100.00
16431;BME280;8325;49.284;7.238;2023-04-01T07:04:47;97196.84;;;8.23;100.00
16431;BME280;8325;49.284;7.238;2023-04-01T07:09:06;97191.59;;;8.16;100.00
16431;BME280;8325;49.284;7.238;2023-04-01T07:14:00;97199.41;;;8.16;100.00
16431;BME280;8325;49.284;7.238;2023-04-01T07:18:16;97207.00;;;8.18;100.00
16431;BME280;8325;49.284;7.238;2023-04-01T07:22:32;97214.78;;;8.18;100.00
16431;BME280;8325;49.284;7.238;2023-04-01T07:27:11;97214.25;;;8.22;100.00
16431;BME280;8325;49.284;7.238;2023-04-01T07:31:56;97223.44;;;8.25;100.00
16431;BME280;8325;49.284;7.238;2023-04-01T07:45:23;97226.16;;;8.38;100.00
16431;BME280;8325;49.284;7.238;2023-04-01T07:50:09;97232.59;;;8.42;100.00
16431;BME280;8325;49.284;7.238;2023-04-01T07:54:53;97238.06;;;8.54;100.00
16431;BME280;8325;49.284;7.238;2023-04-01T08:13:26;97254.75;;;8.73;100.00
16431;BME280;8325;49.284;7.238;2023-04-01T08:18:19;97259.78;;;8.74;100.00
16431;BME280;8325;49.284;7.238;2023-04-01T08:22:42;97269.38;;;8.74;100.00
16431;BME280;8325;49.284;7.238;2023-04-01T08:32:03;97273.63;;;8.82;100.00
16431;BME280;8325;49.284;7.238;2023-04-01T08:36:29;97274.56;;;8.74;100.00
16431;BME280;8325;49.284;7.238;2023-04-01T09:03:44;97303.19;;;9.09;100.00
16431;BME280;8325;49.284;7.238;2023-04-01T09:08:31;97294.13;;;9.05;100.00
16431;BME280;8325;49.284;7.238;2023-04-01T09:17:30;97301.78;;;9.06;100.00
16431;BME280;8325;49.284;7.238;2023-04-01T09:26:52;97311.81;;;9.16;100.00
16431;BME280;8325;49.284;7.238;2023-04-01T09:36:46;97308.44;;;9.22;100.00
16431;BME280;8325;49.284;7.238;2023-04-01T09:41:08;97316.44;;;9.20;100.00
16431;BME280;8325;49.284;7.238;2023-04-01T09:50:46;97315.88;;;9.25;100.00
16431;BME280;8325;49.284;7.238;2023-04-01T09:59:49;97323.13;;;9.36;100.00
16431;BME280;8325;49.284;7.238;2023-04-01T10:23:18;97335.16;;;9.37;100.00
16431;BME280;8325;49.284;7.238;2023-04-01T10:32:46;97340.00;;;9.54;100.00
16431;BME280;8325;49.284;7.238;2023-04-01T10:37:28;97343.06;;;9.64;100.00
16431;BME280;8325;49.284;7.238;2023-04-01T10:51:33;97345.47;;;9.79;100.00
16431;BME280;8325;49.284;7.238;2023-04-01T10:56:23;97344.25;;;9.68;100.00
16431;BME280;8325;49.284;7.238;2023-04-01T11:06:11;97354.13;;;9.79;100.00
16431;BME280;8325;49.284;7.238;2023-04-01T11:10:54;97356.53;;;9.87;100.00
16431;BME280;8325;49.284;7.238;2023-04-01T11:19:53;97363.78;;;9.92;100.00
16431;BME280;8325;49.284;7.238;2023-04-01T11:29:24;97364.16;;;9.82;100.00
16431;BME280;8325;49.284;7.238;2023-04-01T11:34:13;97364.34;;;9.87;100.00
16431;BME280;8325;49.284;7.238;2023-04-01T12:01:49;97398.69;;;9.98;100.00
16431;BME280;8325;49.284;7.238;2023-04-01T12:06:24;97415.94;;;9.85;100.00
16431;BME280;8325;49.284;7.238;2023-04-01T12:10:48;97402.91;;;9.92;100.00
16431;BME280;8325;49.284;7.238;2023-04-01T12:15:20;97413.72;;;9.82;100.00
16431;BME280;8325;49.284;7.238;2023-04-01T12:19:55;97405.66;;;9.84;100.00
16431;BME280;8325;49.284;7.238;2023-04-01T12:24:32;97401.47;;;9.76;100.00
16431;BME280;8325;49.284;7.238;2023-04-01T12:29:03;97409.47;;;9.81;100.00
16431;BME280;8325;49.284;7.238;2023-04-01T12:33:48;97403.06;;;9.77;100.00
16431;BME280;8325;49.284;7.238;2023-04-01T12:38:16;97421.94;;;9.86;100.00
16431;BME280;8325;49.284;7.238;2023-04-01T12:55:51;97437.97;;;9.83;100.00
16431;BME280;8325;49.284;7.238;2023-04-01T13:00:17;97433.41;;;9.91;100.00
16431;BME280;8325;49.284;7.238;2023-04-01T13:09:18;97440.63;;;9.96;100.00
16431;BME280;8325;49.284;7.238;2023-04-01T13:27:47;97443.28;;;10.16;100.00
16431;BME280;8325;49.284;7.238;2023-04-01T13:32:39;97462.34;;;10.23;100.00
16431;BME280;8325;49.284;7.238;2023-04-01T13:46:46;97462.59;;;10.28;100.00
16431;BME280;8325;49.284;7.238;2023-04-01T13:55:57;97478.63;;;10.25;100.00
16431;BME280;8325;49.284;7.238;2023-04-01T14:05:09;97490.66;;;10.20;100.00
16431;BME280;8325;49.284;7.238;2023-04-01T14:09:45;97490.06;;;10.24;100.00
16431;BME280;8325;49.284;7.238;2023-04-01T14:14:35;97485.03;;;10.16;100.00
16431;BME280;8325;49.284;7.238;2023-04-01T14:37:36;97520.16;;;9.72;100.00
16431;BME280;8325;49.284;7.238;2023-04-01T14:42:18;97514.97;;;9.79;100.00
16431;BME280;8325;49.284;7.238;2023-04-01T15:00:01;97527.09;;;9.93;100.00
16431;BME280;8325;49.284;7.238;2023-04-01T15:09:19;97545.38;;;10.00;100.00
16431;BME280;8325;49.284;7.238;2023-04-01T15:13:48;97531.97;;;10.09;100.00
16431;BME280;8325;49.284;7.238;2023-04-01T15:18:10;97534.41;;;10.18;100.00
16431;BME280;8325;49.284;7.238;2023-04-01T15:31:43;97537.34;;;9.95;100.00
16431;BME280;8325;49.284;7.238;2023-04-01T15:36:16;97541.78;;;10.01;100.00
16431;BME280;8325;49.284;7.238;2023-04-01T15:40:44;97543.72;;;9.85;100.00
16431;BME280;8325;49.284;7.238;2023-04-01T15:45:26;97554.16;;;9.85;100.00
16431;BME280;8325;49.284;7.238;2023-04-01T15:49:53;97554.69;;;9.74;100.00
16431;BME280;8325;49.284;7.238;2023-04-01T15:54:27;97561.56;;;9.54;100.00
16431;BME280;8325;49.284;7.238;2023-04-01T16:12:30;97571.34;;;9.45;100.00
16431;BME280;8325;49.284;7.238;2023-04-01T16:21:56;97577.78;;;9.42;100.00
16431;BME280;8325;49.284;7.238;2023-04-01T16:26:19;97580.59;;;9.48;100.00
16431;BME280;8325;49.284;7.238;2023-04-01T16:30:39;97579.00;;;9.47;100.00
16431;BME280;8325;49.284;7.238;2023-04-01T16:39:27;97574.19;;;9.50;100.00
16431;BME280;8325;49.284;7.238;2023-04-01T16:43:44;97578.19;;;9.46;100.00
16431;BME280;8325;49.284;7.238;2023-04-01T16:48:13;97580.75;;;9.39;100.00
16431;BME280;8325;49.284;7.238;2023-04-01T16:52:58;97586.19;;;9.44;100.00
16431;BME280;8325;49.284;7.238;2023-04-01T16:57:19;97593.78;;;9.39;100.00
16431;BME280;8325;49.284;7.238;2023-04-01T17:01:43;97594.16;;;9.36;100.00
16431;BME280;8325;49.284;7.238;2023-04-01T17:06:02;97611.41;;;9.37;100.00
16431;BME280;8325;49.284;7.238;2023-04-01T17:10:43;97613.72;;;9.26;100.00
16431;BME280;8325;49.284;7.238;2023-04-01T17:15:17;97612.91;;;9.25;100.00
16431;BME280;8325;49.284;7.238;2023-04-01T17:19:49;97612.44;;;9.15;100.00
16431;BME280;8325;49.284;7.238;2023-04-01T17:24:29;97624.41;;;9.09;100.00
16431;BME280;8325;49.284;7.238;2023-04-01T17:29:13;97619.00;;;9.11;100.00
16431;BME280;8325;49.284;7.238;2023-04-01T17:38:16;97631.00;;;9.05;100.00
16431;BME280;8325;49.284;7.238;2023-04-01T17:42:52;97628.94;;;9.01;100.00
16431;BME280;8325;49.284;7.238;2023-04-01T17:47:29;97630.91;;;8.98;100.00
16431;BME280;8325;49.284;7.238;2023-04-01T17:51:55;97631.91;;;8.97;100.00
16431;BME280;8325;49.284;7.238;2023-04-01T18:00:32;97648.63;;;8.88;100.00
16431;BME280;8325;49.284;7.238;2023-04-01T18:05:27;97646.03;;;8.88;100.00
16431;BME280;8325;49.284;7.238;2023-04-01T18:23:30;97668.97;;;8.78;100.00
16431;BME280;8325;49.284;7.238;2023-04-01T18:27:50;97669.78;;;8.79;100.00
16431;BME280;8325;49.284;7.238;2023-04-01T18:36:48;97680.50;;;8.69;100.00
16431;BME280;8325;49.284;7.238;2023-04-01T18:41:14;97689.91;;;8.70;100.00
16431;BME280;8325;49.284;7.238;2023-04-01T18:45:30;97697.34;;;8.73;100.00
16431;BME280;8325;49.284;7.238;2023-04-01T18:50:00;97707.41;;;8.76;100.00
16431;BME280;8325;49.284;7.238;2023-04-01T18:54:21;97710.72;;;8.70;100.00
16431;BME280;8325;49.284;7.238;2023-04-01T19:02:58;97724.19;;;8.73;100.00
16431;BME280;8325;49.284;7.238;2023-04-01T19:21:37;97746.09;;;8.64;100.00
16431;BME280;8325;49.284;7.238;2023-04-01T19:25:55;97749.63;;;8.57;100.00
16431;BME280;8325;49.284;7.238;2023-04-01T19:31:17;97754.47;;;8.60;100.00
16431;BME280;8325;49.284;7.238;2023-04-01T19:35:26;97760.91;;;8.64;100.00
16431;BME280;8325;49.284;7.238;2023-04-01T19:39:59;97762.88;;;8.62;100.00
16431;BME280;8325;49.284;7.238;2023-04-01T19:44:59;97761.56;;;8.66;100.00
16431;BME280;8325;49.284;7.238;2023-04-01T20:03:04;97788.19;;;8.68;100.00
16431;BME280;8325;49.284;7.238;2023-04-01T20:07:35;97792.59;;;8.67;100.00
16431;BME280;8325;49.284;7.238;2023-04-01T20:12:20;97788.31;;;8.60;100.00
16431;BME280;8325;49.284;7.238;2023-04-01T20:16:47;97804.53;;;8.62;100.00
16431;BME280;8325;49.284;7.238;2023-04-01T20:21:03;97804.09;;;8.58;100.00
16431;BME280;8325;49.284;7.238;2023-04-01T20:25:23;97804.28;;;8.57;100.00
16431;BME280;8325;49.284;7.238;2023-04-01T20:30:18;97817.56;;;8.62;100.00
16431;BME280;8325;49.284;7.238;2023-04-01T20:35:16;97816.22;;;8.66;100.00
16431;BME280;8325;49.284;7.238;2023-04-01T20:39:43;97826.63;;;8.66;100.00
16431;BME280;8325;49.284;7.238;2023-04-01T20:44:12;97820.16;;;8.62;100.00
16431;BME280;8325;49.284;7.238;2023-04-01T20:59:33;97837.06;;;8.66;100.00
16431;BME280;8325;49.284;7.238;2023-04-01T21:08:24;97838.94;;;8.57;100.00
16431;BME280;8325;49.284;7.238;2023-04-01T21:18:04;97843.59;;;8.62;100.00
16431;BME280;8325;49.284;7.238;2023-04-01T21:22:34;97839.94;;;8.56;100.00
16431;BME280;8325;49.284;7.238;2023-04-01T21:26:52;97849.25;;;8.50;100.00
